Flight Track Log - Related Links

Times and Time Zones

All times are in EDT time to prevent confusion due to time zone crossing. See the SKW5564 flight status page for this flight to view local times or setup timezone preferences in your user account.

Time Position Orientation Groundspeed Altitude Reporting Facility
EDT Latitude Longitude Course Direction KTS MPH feet Rate Location/Type
Mon 07:08:00 PM 34.1063 -85.5586 297° West  Level Estimated
Mon 07:09:00 PM 34.1527 -85.6723 296° West  Level Estimated
Mon 07:10:00 PM 34.1990 -85.7862 296° West  Level Estimated
Mon 07:11:00 PM 34.2452 -85.9002 296° West  Level Estimated
Mon 07:12:00 PM 34.2913 -86.0144 296° West  Level Estimated
Mon 07:13:00 PM 34.3372 -86.1286 296° West  Level Estimated
Mon 07:14:00 PM 34.3831 -86.2430 296° West  Level Estimated
Mon 07:15:00 PM 34.4289 -86.3575 296° West  Level Estimated
Mon 07:16:00 PM 34.4745 -86.4721 296° West  Level Estimated
Mon 07:17:00 PM 34.5201 -86.5869 296° West  Level Estimated
Mon 07:18:00 PM 34.5655 -86.7018 296° West  Level Estimated
Mon 07:19:00 PM 34.6108 -86.8168 296° West  Level Estimated
Mon 07:20:00 PM 34.6560 -86.9319 296° West  Level Estimated
Mon 07:21:00 PM 34.7011 -87.0472 295° West  Level Estimated
Mon 07:22:00 PM 34.7462 -87.1626 295° West  Level Estimated
Mon 07:23:00 PM 34.7910 -87.2781 295° West  Level Estimated
Mon 07:24:00 PM 34.8358 -87.3937 295° West  Level Estimated
Mon 07:25:00 PM 34.8805 -87.5095 295° West  Level Estimated
Mon 07:26:00 PM 34.9251 -87.6254 295° West  Level Estimated
Mon 07:27:00 PM 34.9695 -87.7414 295° West  Level Estimated
Mon 07:28:00 PM 35.0139 -87.8575 295° West  Level Estimated
Mon 07:29:00 PM 35.0581 -87.9738 295° West  Level Estimated
Mon 07:30:00 PM 35.1022 -88.0901 295° West  Level Estimated
Mon 07:31:00 PM 35.1463 -88.2067 295° West  Level Estimated
Mon 07:32:00 PM 35.1902 -88.3233 295° West  Level Estimated
Mon 07:33:00 PM 35.2339 -88.4401 295° West  Level Estimated
Mon 07:34:00 PM 35.2776 -88.5570 295° West  Level Estimated
Mon 07:35:00 PM 35.3212 -88.6740 295° West  Level Estimated
Mon 07:36:00 PM 35.3646 -88.7911 294° West  Level Estimated
Mon 07:37:00 PM 35.4080 -88.9084 294° West  Level Estimated
Mon 07:38:00 PM 35.4512 -89.0258 294° West  Level Estimated
Mon 07:39:00 PM 35.4943 -89.1433 294° West  Level Estimated
Mon 07:40:00 PM 35.5373 -89.2610 294° West  Level Estimated
Mon 07:41:00 PM 35.5802 -89.3788 294° West  Level Estimated
Mon 07:42:00 PM 35.6230 -89.4967 294° West  Level Estimated
Mon 07:43:00 PM 35.6656 -89.6147 294° West  Level Estimated
Mon 07:44:00 PM 35.7081 -89.7328 294° West  Level Estimated
Mon 07:45:00 PM 35.7506 -89.8511 294° West  Level Estimated
Mon 07:46:00 PM 35.7929 -89.9695 294° West  Level Estimated
Mon 07:47:00 PM 35.8351 -90.0881 294° West  Level Estimated
Mon 07:48:00 PM 35.8771 -90.2067 294° West  Level Estimated
Mon 07:49:00 PM 35.9191 -90.3255 294° West  Level Estimated
Mon 07:50:00 PM 35.9609 -90.4444 294° West  Level Estimated
Mon 07:51:00 PM 36.0027 -90.5635 293° West  Level Estimated
Mon 07:52:00 PM 36.0443 -90.6826 293° West  Level Estimated
Mon 07:53:00 PM 36.0857 -90.8019 293° West  Level Estimated
Mon 07:54:00 PM 36.1271 -90.9213 293° West  Level Estimated
Mon 07:55:00 PM 36.1684 -91.0408 293° West  Level Estimated
Mon 07:56:00 PM 36.2095 -91.1605 293° West  Level Estimated
Mon 07:57:00 PM 36.2505 -91.2803 293° West  Level Estimated
Mon 07:58:00 PM 36.2914 -91.4002 293° West  Level Estimated
Mon 07:59:00 PM 36.3322 -91.5203 293° West  Level Estimated
Mon 08:00:00 PM 36.3728 -91.6404 293° West  Level Estimated
Mon 08:01:00 PM 36.4133 -91.7607 293° West  Level Estimated
Mon 08:02:00 PM 36.4538 -91.8811 293° West  Level Estimated
Mon 08:03:00 PM 36.4940 -92.0017 293° West  Level Estimated
Mon 08:04:00 PM 36.5342 -92.1224 293° West  Level Estimated
Mon 08:05:00 PM 36.5743 -92.2431 292° West  Level Estimated
Mon 08:06:00 PM 36.6142 -92.3641 292° West  Level Estimated
Mon 08:07:00 PM 36.6540 -92.4851 292° West  Level Estimated
Mon 08:08:00 PM 36.6937 -92.6063 292° West  Level Estimated
Mon 08:09:00 PM 36.7332 -92.7276 292° West  Level Estimated
Mon 08:10:00 PM 36.7727 -92.8490 292° West  Level Estimated
Mon 08:11:00 PM 36.8120 -92.9705 292° West  Level Estimated
Mon 08:12:00 PM 36.8512 -93.0922 292° West  Level Estimated
Mon 08:13:00 PM 36.8902 -93.2140 292° West  Level Estimated
Mon 08:14:00 PM 36.9291 -93.3359 292° West  Level Estimated
Mon 08:15:00 PM 36.9680 -93.4579 292° West  Level Estimated
Mon 08:16:00 PM 37.0066 -93.5801 292° West  Level Estimated
Mon 08:17:00 PM 37.0452 -93.7024 292° West  Level Estimated
Mon 08:18:00 PM 37.0836 -93.8248 292° West  Level Estimated
Mon 08:19:00 PM 37.1220 -93.9473 291° West  Level Estimated
Mon 08:20:00 PM 37.1601 -94.0700 291° West  Level Estimated
Mon 08:21:00 PM 37.1982 -94.1928 291° West  Level Estimated
Mon 08:22:00 PM 37.2361 -94.3157 291° West  Level Estimated
Mon 08:23:00 PM 37.2739 -94.4387 291° West  Level Estimated
Mon 08:24:00 PM 37.3116 -94.5619 291° West  Level Estimated
Mon 08:25:00 PM 37.3492 -94.6852 291° West  Level Estimated
Mon 08:26:00 PM 37.3866 -94.8086 291° West  Level Estimated
Mon 08:27:00 PM 37.4239 -94.9321 291° West  Level Estimated
Mon 08:28:00 PM 37.4610 -95.0558 291° West  Level Estimated
Mon 08:29:00 PM 37.4981 -95.1795 291° West  Level Estimated
Mon 08:30:00 PM 37.5350 -95.3034 291° West  Level Estimated
Mon 08:31:00 PM 37.5717 -95.4274 291° West  Level Estimated
Mon 08:32:00 PM 37.6084 -95.5516 290° West  Level Estimated
Mon 08:33:00 PM 37.6449 -95.6758 290° West  Level Estimated
Mon 08:34:00 PM 37.6813 -95.8002 290° West  Level Estimated
Mon 08:35:00 PM 37.7175 -95.9247 290° West  Level Estimated
Mon 08:36:00 PM 37.7537 -96.0494 290° West  Level Estimated
Mon 08:37:00 PM 37.7896 -96.1741 290° West  Level Estimated
Mon 08:38:00 PM 37.8255 -96.2990 290° West  Level Estimated
Mon 08:39:00 PM 37.8612 -96.4240 290° West  Level Estimated
Mon 08:40:00 PM 37.8968 -96.5491 290° West  Level Estimated
Mon 08:41:00 PM 37.9323 -96.6743 290° West  Level Estimated
Mon 08:42:00 PM 37.9676 -96.7997 290° West  Level Estimated
Mon 08:43:00 PM 38.0028 -96.9251 290° West  Level Estimated
Mon 08:44:00 PM 38.0379 -97.0507 290° West  Level Estimated
Mon 08:45:00 PM 38.0728 -97.1764 289° West  Level Estimated
Mon 08:46:00 PM 38.1076 -97.3023 289° West  Level Estimated
Mon 08:47:00 PM 38.1423 -97.4282 289° West  Level Estimated
Mon 08:48:00 PM 38.1768 -97.5543 289° West  Level Estimated
Mon 08:49:00 PM 38.2112 -97.6805 289° West  Level Estimated
Mon 08:50:00 PM 38.2454 -97.8068 289° West  Level Estimated
Mon 08:51:00 PM 38.2796 -97.9332 289° West  Level Estimated
Mon 08:52:00 PM 38.3136 -98.0598 289° West  Level Estimated
Mon 08:53:00 PM 38.3474 -98.1864 289° West  Level Estimated
Mon 08:54:00 PM 38.3811 -98.3132 289° West  Level Estimated
Mon 08:55:00 PM 38.4147 -98.4401 289° West  Level Estimated
Mon 08:56:00 PM 38.4481 -98.5671 289° West  Level Estimated
Mon 08:57:00 PM 38.4814 -98.6943 289° West  Level Estimated
Mon 08:58:00 PM 38.5146 -98.8215 288° West  Level Estimated
Mon 08:59:00 PM 38.5476 -98.9489 288° West  Level Estimated
Mon 09:00:00 PM 38.5805 -99.0764 288° West  Level Estimated
Mon 09:01:00 PM 38.6133 -99.2040 288° West  Level Estimated
Mon 09:02:00 PM 38.6459 -99.3317 288° West  Level Estimated
Mon 09:03:00 PM 38.6783 -99.4596 288° West  Level Estimated
Mon 09:04:00 PM 38.7107 -99.5875 288° West  Level Estimated
Mon 09:05:00 PM 38.7429 -99.7156 288° West  Level Estimated
Mon 09:06:00 PM 38.7749 -99.8438 288° West  Level Estimated
Mon 09:07:00 PM 38.8068 -99.9721 288° West  Level Estimated
Mon 09:08:00 PM 38.8386 -100.1005 288° West  Level Estimated
Mon 09:09:00 PM 38.8702 -100.2290 288° West  Level Estimated
Mon 09:10:00 PM 38.9017 -100.3577 287° West  Level Estimated
Mon 09:11:00 PM 38.9331 -100.4864 287° West  Level Estimated
Mon 09:12:00 PM 38.9643 -100.6153 287° West  Level Estimated
Mon 09:13:00 PM 38.9953 -100.7443 287° West  Level Estimated
Mon 09:14:00 PM 39.0263 -100.8734 287° West  Level Estimated
Mon 09:15:00 PM 39.0570 -101.0026 287° West  Level Estimated
Mon 09:16:00 PM 39.0877 -101.1319 287° West  Level Estimated
Mon 09:17:00 PM 39.1182 -101.2614 287° West  Level Estimated
Mon 09:18:00 PM 39.1485 -101.3909 287° West  Level Estimated
Mon 09:19:00 PM 39.1787 -101.5206 287° West  Level Estimated
Mon 09:20:00 PM 39.2088 -101.6504 287° West  Level Estimated
Mon 09:21:00 PM 39.2387 -101.7802 287° West  Level Estimated
Mon 09:22:00 PM 39.2685 -101.9102 287° West  Level Estimated
Mon 09:23:00 PM 39.2981 -102.0403 286° West  Level Estimated
Mon 09:24:00 PM 39.3276 -102.1705 286° West  Level Estimated
Mon 09:25:00 PM 39.3570 -102.3008 286° West  Level Estimated
Mon 09:26:00 PM 39.3862 -102.4313 286° West  Level Estimated
Mon 09:27:00 PM 39.4152 -102.5618 286° West  Level Estimated
Mon 09:28:00 PM 39.4441 -102.6925 286° West  Level Estimated
Mon 09:29:00 PM 39.4729 -102.8232 286° West  Level Estimated
Mon 09:30:00 PM 39.5015 -102.9541 286° West  Level Estimated
Mon 09:31:00 PM 39.5300 -103.0851 286° West  Level Estimated
Mon 09:32:00 PM 39.5583 -103.2161 286° West  Level Estimated
Mon 09:33:00 PM 39.5865 -103.3473 286° West  Level Estimated
Mon 09:34:00 PM 39.6145 -103.4786 286° West  Level Estimated
Mon 09:35:00 PM 39.6424 -103.6100 285° West  Level Estimated
Mon 09:36:00 PM 39.6701 -103.7415 285° West  Level Estimated
Mon 09:37:00 PM 39.6977 -103.8731 285° West  Level Estimated
Mon 09:38:00 PM 39.7251 -104.0048 285° West  Level Estimated
Mon 09:39:00 PM 39.7524 -104.1367 285° West  Level Estimated
Mon 09:40:00 PM 39.7795 -104.2686 285° West  Level Estimated
Mon 09:41:00 PM 39.8065 -104.4006 285° West  Level Estimated
Mon 09:42:00 PM 39.8333 -104.5327 285° West  Level Estimated
Mon 09:43:00 PM 39.8600 -104.6650 285° West  Level Estimated
Mon 09:44:00 PM 39.8617 -104.6732 285° West  Level Estimated
Mon 09:45:00 PM 39.8617 -104.6732 142° Southeast  Level Estimated
Mon 09:46:00 PM 39.8617 -104.6732 142° Southeast  Level Estimated
Mon 09:47:00 PM 39.8617 -104.6732 142° Southeast  Level Estimated
Mon 09:48:00 PM 39.8617 -104.6732 142° Southeast  Level Estimated
Mon 09:49:00 PM 39.8617 -104.6732 142° Southeast  Level Estimated
Mon 09:50:00 PM 39.8617 -104.6732 142° Southeast  Level Estimated

Login

Don't have an account? Register now (free) for customized features, flight alerts, and more!